sensor_id;sensor_type;location;lat;lon;timestamp;temperature;humidity
21115;DHT22;10715;48.546;9.896;2022-10-16T00:01:22;11.80;99.90
21115;DHT22;10715;48.546;9.896;2022-10-16T00:03:48;11.80;99.90
21115;DHT22;10715;48.546;9.896;2022-10-16T00:06:17;11.80;99.90
21115;DHT22;10715;48.546;9.896;2022-10-16T00:08:43;11.70;99.90
21115;DHT22;10715;48.546;9.896;2022-10-16T00:11:12;11.70;99.90
21115;DHT22;10715;48.546;9.896;2022-10-16T00:13:39;11.70;99.90
21115;DHT22;10715;48.546;9.896;2022-10-16T00:16:06;11.70;99.90
21115;DHT22;10715;48.546;9.896;2022-10-16T00:18:33;11.70;99.90
21115;DHT22;10715;48.546;9.896;2022-10-16T00:21:04;11.70;99.90
21115;DHT22;10715;48.546;9.896;2022-10-16T00:23:30;11.60;99.90
21115;DHT22;10715;48.546;9.896;2022-10-16T00:26:04;11.60;99.90
21115;DHT22;10715;48.546;9.896;2022-10-16T00:28:30;11.60;99.90
21115;DHT22;10715;48.546;9.896;2022-10-16T00:30:56;11.60;99.90
21115;DHT22;10715;48.546;9.896;2022-10-16T00:33:22;11.60;99.90
21115;DHT22;10715;48.546;9.896;2022-10-16T00:35:48;11.50;99.90
21115;DHT22;10715;48.546;9.896;2022-10-16T00:38:14;11.50;99.90
21115;DHT22;10715;48.546;9.896;2022-10-16T00:40:43;11.50;99.90
21115;DHT22;10715;48.546;9.896;2022-10-16T00:43:14;11.40;99.90
21115;DHT22;10715;48.546;9.896;2022-10-16T00:45:57;11.40;99.90
21115;DHT22;10715;48.546;9.896;2022-10-16T00:48:23;11.40;99.90
21115;DHT22;10715;48.546;9.896;2022-10-16T00:50:49;11.40;99.90
21115;DHT22;10715;48.546;9.896;2022-10-16T00:53:15;11.30;99.90
21115;DHT22;10715;48.546;9.896;2022-10-16T00:55:42;11.30;99.90
21115;DHT22;10715;48.546;9.896;2022-10-16T00:58:07;11.20;99.90
21115;DHT22;10715;48.546;9.896;2022-10-16T01:00:33;11.10;99.90
21115;DHT22;10715;48.546;9.896;2022-10-16T01:03:01;11.10;99.90
21115;DHT22;10715;48.546;9.896;2022-10-16T01:05:39;11.00;99.90
21115;DHT22;10715;48.546;9.896;2022-10-16T01:08:45;11.00;99.90
21115;DHT22;10715;48.546;9.896;2022-10-16T01:11:27;10.90;99.90
21115;DHT22;10715;48.546;9.896;2022-10-16T01:14:00;10.90;99.90
21115;DHT22;10715;48.546;9.896;2022-10-16T01:17:13;10.80;99.90
21115;DHT22;10715;48.546;9.896;2022-10-16T01:22:09;10.70;99.90
21115;DHT22;10715;48.546;9.896;2022-10-16T01:24:43;10.60;99.90
21115;DHT22;10715;48.546;9.896;2022-10-16T01:29:49;10.60;99.90
21115;DHT22;10715;48.546;9.896;2022-10-16T01:32:36;10.60;99.90
21115;DHT22;10715;48.546;9.896;2022-10-16T01:35:36;10.50;99.90
21115;DHT22;10715;48.546;9.896;2022-10-16T01:38:14;10.50;99.90
21115;DHT22;10715;48.546;9.896;2022-10-16T01:40:45;10.50;99.90
21115;DHT22;10715;48.546;9.896;2022-10-16T01:43:16;10.50;99.90
21115;DHT22;10715;48.546;9.896;2022-10-16T01:45:44;10.50;99.90
21115;DHT22;10715;48.546;9.896;2022-10-16T01:48:13;10.50;99.90
21115;DHT22;10715;48.546;9.896;2022-10-16T01:50:41;10.50;99.90
21115;DHT22;10715;48.546;9.896;2022-10-16T01:53:11;10.50;99.90
21115;DHT22;10715;48.546;9.896;2022-10-16T01:55:41;10.60;99.90
21115;DHT22;10715;48.546;9.896;2022-10-16T01:58:12;10.60;99.90
21115;DHT22;10715;48.546;9.896;2022-10-16T02:00:41;10.70;99.90
21115;DHT22;10715;48.546;9.896;2022-10-16T02:03:07;10.70;99.90
21115;DHT22;10715;48.546;9.896;2022-10-16T02:05:39;10.70;99.90
21115;DHT22;10715;48.546;9.896;2022-10-16T02:08:06;10.70;99.90
21115;DHT22;10715;48.546;9.896;2022-10-16T02:10:32;10.80;99.90
21115;DHT22;10715;48.546;9.896;2022-10-16T02:13:06;10.80;99.90
21115;DHT22;10715;48.546;9.896;2022-10-16T02:15:32;10.80;99.90
21115;DHT22;10715;48.546;9.896;2022-10-16T02:17:58;10.80;99.90
21115;DHT22;10715;48.546;9.896;2022-10-16T02:20:27;10.80;99.90
21115;DHT22;10715;48.546;9.896;2022-10-16T02:22:54;10.80;99.90
21115;DHT22;10715;48.546;9.896;2022-10-16T02:25:31;10.90;99.90
21115;DHT22;10715;48.546;9.896;2022-10-16T02:28:13;10.90;99.90
21115;DHT22;10715;48.546;9.896;2022-10-16T02:30:52;10.90;99.90
21115;DHT22;10715;48.546;9.896;2022-10-16T02:33:21;10.90;99.90
21115;DHT22;10715;48.546;9.896;2022-10-16T02:35:49;10.90;99.90
21115;DHT22;10715;48.546;9.896;2022-10-16T02:38:17;10.90;99.90
21115;DHT22;10715;48.546;9.896;2022-10-16T02:40:44;10.90;99.90
21115;DHT22;10715;48.546;9.896;2022-10-16T02:43:11;10.90;99.90
21115;DHT22;10715;48.546;9.896;2022-10-16T02:45:37;10.90;99.90
21115;DHT22;10715;48.546;9.896;2022-10-16T02:48:03;10.90;99.90
21115;DHT22;10715;48.546;9.896;2022-10-16T02:50:29;10.90;99.90
21115;DHT22;10715;48.546;9.896;2022-10-16T02:52:54;11.00;99.90
21115;DHT22;10715;48.546;9.896;2022-10-16T02:55:20;11.00;99.90
21115;DHT22;10715;48.546;9.896;2022-10-16T02:57:46;11.00;99.90
21115;DHT22;10715;48.546;9.896;2022-10-16T03:00:13;11.00;99.90
21115;DHT22;10715;48.546;9.896;2022-10-16T03:02:39;11.00;99.90
21115;DHT22;10715;48.546;9.896;2022-10-16T03:05:06;11.10;99.90
21115;DHT22;10715;48.546;9.896;2022-10-16T03:07:32;11.10;99.90
21115;DHT22;10715;48.546;9.896;2022-10-16T03:09:57;11.10;99.90
21115;DHT22;10715;48.546;9.896;2022-10-16T03:12:26;11.20;99.90
21115;DHT22;10715;48.546;9.896;2022-10-16T03:14:52;11.20;99.90
21115;DHT22;10715;48.546;9.896;2022-10-16T03:17:18;11.20;99.90
21115;DHT22;10715;48.546;9.896;2022-10-16T03:19:44;11.20;99.90
21115;DHT22;10715;48.546;9.896;2022-10-16T03:22:10;11.20;99.90
21115;DHT22;10715;48.546;9.896;2022-10-16T03:24:35;11.30;99.90
21115;DHT22;10715;48.546;9.896;2022-10-16T03:27:01;11.30;99.90
21115;DHT22;10715;48.546;9.896;2022-10-16T03:29:27;11.30;99.90
21115;DHT22;10715;48.546;9.896;2022-10-16T03:31:55;11.30;99.90
21115;DHT22;10715;48.546;9.896;2022-10-16T03:34:21;11.20;99.90
21115;DHT22;10715;48.546;9.896;2022-10-16T03:36:47;11.20;99.90
21115;DHT22;10715;48.546;9.896;2022-10-16T03:39:12;11.20;99.90
21115;DHT22;10715;48.546;9.896;2022-10-16T03:41:38;11.20;99.90
21115;DHT22;10715;48.546;9.896;2022-10-16T03:44:04;11.20;99.90
21115;DHT22;10715;48.546;9.896;2022-10-16T03:46:29;11.20;99.90
21115;DHT22;10715;48.546;9.896;2022-10-16T03:48:55;11.20;99.90
21115;DHT22;10715;48.546;9.896;2022-10-16T03:51:21;11.20;99.90
21115;DHT22;10715;48.546;9.896;2022-10-16T03:53:47;11.20;99.90
21115;DHT22;10715;48.546;9.896;2022-10-16T03:56:13;11.10;99.90
21115;DHT22;10715;48.546;9.896;2022-10-16T03:58:38;11.10;99.90
21115;DHT22;10715;48.546;9.896;2022-10-16T04:01:04;11.10;99.90
21115;DHT22;10715;48.546;9.896;2022-10-16T04:03:30;11.00;99.90
21115;DHT22;10715;48.546;9.896;2022-10-16T04:05:56;11.00;99.90
21115;DHT22;10715;48.546;9.896;2022-10-16T04:08:22;11.00;99.90
21115;DHT22;10715;48.546;9.896;2022-10-16T04:10:47;11.00;99.90
21115;DHT22;10715;48.546;9.896;2022-10-16T04:13:13;11.00;99.90
21115;DHT22;10715;48.546;9.896;2022-10-16T04:15:39;11.00;99.90
21115;DHT22;10715;48.546;9.896;2022-10-16T04:18:05;11.00;99.90
21115;DHT22;10715;48.546;9.896;2022-10-16T04:20:31;11.00;99.90
21115;DHT22;10715;48.546;9.896;2022-10-16T04:22:57;11.00;99.90
21115;DHT22;10715;48.546;9.896;2022-10-16T04:25:22;10.90;99.90
21115;DHT22;10715;48.546;9.896;2022-10-16T04:27:48;11.00;99.90
21115;DHT22;10715;48.546;9.896;2022-10-16T04:30:14;11.00;99.90
21115;DHT22;10715;48.546;9.896;2022-10-16T04:32:40;11.00;99.90
21115;DHT22;10715;48.546;9.896;2022-10-16T04:35:06;11.00;99.90
21115;DHT22;10715;48.546;9.896;2022-10-16T04:37:32;11.00;99.90
21115;DHT22;10715;48.546;9.896;2022-10-16T04:39:58;11.00;99.90
21115;DHT22;10715;48.546;9.896;2022-10-16T04:42:24;11.00;99.90
21115;DHT22;10715;48.546;9.896;2022-10-16T04:44:49;11.00;99.90
21115;DHT22;10715;48.546;9.896;2022-10-16T04:47:15;11.00;99.90
21115;DHT22;10715;48.546;9.896;2022-10-16T04:49:41;11.00;99.90
21115;DHT22;10715;48.546;9.896;2022-10-16T04:52:07;11.00;99.90
21115;DHT22;10715;48.546;9.896;2022-10-16T04:54:35;11.00;99.90
21115;DHT22;10715;48.546;9.896;2022-10-16T04:57:00;10.90;99.90
21115;DHT22;10715;48.546;9.896;2022-10-16T04:59:26;10.90;99.90
21115;DHT22;10715;48.546;9.896;2022-10-16T05:01:52;10.80;99.90
21115;DHT22;10715;48.546;9.896;2022-10-16T05:04:18;10.80;99.90
21115;DHT22;10715;48.546;9.896;2022-10-16T05:06:43;10.80;99.90
21115;DHT22;10715;48.546;9.896;2022-10-16T05:09:10;10.80;99.90
21115;DHT22;10715;48.546;9.896;2022-10-16T05:11:35;10.80;99.90
21115;DHT22;10715;48.546;9.896;2022-10-16T05:14:02;10.80;99.90
21115;DHT22;10715;48.546;9.896;2022-10-16T05:16:28;10.80;99.90
21115;DHT22;10715;48.546;9.896;2022-10-16T05:18:53;10.90;99.90
21115;DHT22;10715;48.546;9.896;2022-10-16T05:21:20;10.90;99.90
21115;DHT22;10715;48.546;9.896;2022-10-16T05:23:46;10.90;99.90
21115;DHT22;10715;48.546;9.896;2022-10-16T05:26:12;10.90;99.90
21115;DHT22;10715;48.546;9.896;2022-10-16T05:28:38;10.90;99.90
21115;DHT22;10715;48.546;9.896;2022-10-16T05:31:08;10.90;99.90
21115;DHT22;10715;48.546;9.896;2022-10-16T05:33:35;10.90;99.90
21115;DHT22;10715;48.546;9.896;2022-10-16T05:36:05;10.90;99.90
21115;DHT22;10715;48.546;9.896;2022-10-16T05:38:33;10.90;99.90
21115;DHT22;10715;48.546;9.896;2022-10-16T05:40:59;10.90;99.90
21115;DHT22;10715;48.546;9.896;2022-10-16T05:43:27;10.90;99.90
21115;DHT22;10715;48.546;9.896;2022-10-16T05:45:58;10.90;99.90
21115;DHT22;10715;48.546;9.896;2022-10-16T05:48:24;10.90;99.90
21115;DHT22;10715;48.546;9.896;2022-10-16T05:51:04;10.90;99.90
21115;DHT22;10715;48.546;9.896;2022-10-16T05:53:32;10.80;99.90
21115;DHT22;10715;48.546;9.896;2022-10-16T05:55:58;10.80;99.90
21115;DHT22;10715;48.546;9.896;2022-10-16T05:58:25;10.80;99.90
21115;DHT22;10715;48.546;9.896;2022-10-16T06:01:00;10.90;99.90
21115;DHT22;10715;48.546;9.896;2022-10-16T06:03:26;10.90;99.90
21115;DHT22;10715;48.546;9.896;2022-10-16T06:05:52;10.90;99.90
21115;DHT22;10715;48.546;9.896;2022-10-16T06:08:19;11.00;99.90
21115;DHT22;10715;48.546;9.896;2022-10-16T06:10:45;11.00;99.90
21115;DHT22;10715;48.546;9.896;2022-10-16T06:13:12;11.10;99.90
21115;DHT22;10715;48.546;9.896;2022-10-16T06:15:39;11.20;99.90
21115;DHT22;10715;48.546;9.896;2022-10-16T06:18:07;11.30;99.90
21115;DHT22;10715;48.546;9.896;2022-10-16T06:20:34;11.30;99.90
21115;DHT22;10715;48.546;9.896;2022-10-16T06:22:59;11.40;99.90
21115;DHT22;10715;48.546;9.896;2022-10-16T06:25:25;11.50;99.90
21115;DHT22;10715;48.546;9.896;2022-10-16T06:27:51;11.60;99.90
21115;DHT22;10715;48.546;9.896;2022-10-16T06:30:17;11.70;99.90
21115;DHT22;10715;48.546;9.896;2022-10-16T06:32:42;11.80;99.90
21115;DHT22;10715;48.546;9.896;2022-10-16T06:35:08;11.90;99.90
21115;DHT22;10715;48.546;9.896;2022-10-16T06:37:34;12.00;99.90
21115;DHT22;10715;48.546;9.896;2022-10-16T06:40:00;12.10;99.90
21115;DHT22;10715;48.546;9.896;2022-10-16T06:42:25;12.30;99.90
21115;DHT22;10715;48.546;9.896;2022-10-16T06:44:51;12.40;99.90
21115;DHT22;10715;48.546;9.896;2022-10-16T06:47:17;12.50;99.90
21115;DHT22;10715;48.546;9.896;2022-10-16T06:49:43;12.50;99.90
21115;DHT22;10715;48.546;9.896;2022-10-16T06:52:08;12.40;99.90
21115;DHT22;10715;48.546;9.896;2022-10-16T06:54:34;12.40;99.90
21115;DHT22;10715;48.546;9.896;2022-10-16T06:57:00;12.30;99.90
21115;DHT22;10715;48.546;9.896;2022-10-16T06:59:27;12.40;99.90
21115;DHT22;10715;48.546;9.896;2022-10-16T07:01:52;12.40;99.90
21115;DHT22;10715;48.546;9.896;2022-10-16T07:04:18;12.60;99.90
21115;DHT22;10715;48.546;9.896;2022-10-16T07:06:44;12.70;99.90
21115;DHT22;10715;48.546;9.896;2022-10-16T07:09:11;12.90;99.90
21115;DHT22;10715;48.546;9.896;2022-10-16T07:11:38;13.00;99.90
21115;DHT22;10715;48.546;9.896;2022-10-16T07:14:04;13.20;99.90
21115;DHT22;10715;48.546;9.896;2022-10-16T07:16:32;13.20;99.90
21115;DHT22;10715;48.546;9.896;2022-10-16T07:19:02;13.30;99.90
21115;DHT22;10715;48.546;9.896;2022-10-16T07:21:30;13.40;99.90
21115;DHT22;10715;48.546;9.896;2022-10-16T07:23:58;13.50;99.90
21115;DHT22;10715;48.546;9.896;2022-10-16T07:26:27;13.60;99.90
21115;DHT22;10715;48.546;9.896;2022-10-16T07:28:52;13.60;99.90
21115;DHT22;10715;48.546;9.896;2022-10-16T07:31:19;13.70;99.90
21115;DHT22;10715;48.546;9.896;2022-10-16T07:33:47;13.70;99.90
21115;DHT22;10715;48.546;9.896;2022-10-16T07:36:17;13.70;99.90
21115;DHT22;10715;48.546;9.896;2022-10-16T07:38:44;13.70;99.90
21115;DHT22;10715;48.546;9.896;2022-10-16T07:41:15;13.70;99.90
21115;DHT22;10715;48.546;9.896;2022-10-16T07:43:49;13.70;99.90
21115;DHT22;10715;48.546;9.896;2022-10-16T07:46:16;13.70;99.90
21115;DHT22;10715;48.546;9.896;2022-10-16T07:48:42;13.70;99.90
21115;DHT22;10715;48.546;9.896;2022-10-16T07:51:12;13.70;99.90
21115;DHT22;10715;48.546;9.896;2022-10-16T07:53:38;13.70;99.90
21115;DHT22;10715;48.546;9.896;2022-10-16T07:56:05;13.70;99.90
21115;DHT22;10715;48.546;9.896;2022-10-16T07:58:32;13.70;99.90
21115;DHT22;10715;48.546;9.896;2022-10-16T08:00:58;13.80;99.90
21115;DHT22;10715;48.546;9.896;2022-10-16T08:03:24;13.90;99.90
21115;DHT22;10715;48.546;9.896;2022-10-16T08:05:50;14.10;99.90
21115;DHT22;10715;48.546;9.896;2022-10-16T08:08:17;14.30;99.90
21115;DHT22;10715;48.546;9.896;2022-10-16T08:10:43;14.60;99.90
21115;DHT22;10715;48.546;9.896;2022-10-16T08:13:09;14.80;99.90
21115;DHT22;10715;48.546;9.896;2022-10-16T08:15:35;14.90;99.90
21115;DHT22;10715;48.546;9.896;2022-10-16T08:18:05;14.90;99.90
21115;DHT22;10715;48.546;9.896;2022-10-16T08:20:32;15.00;99.90
21115;DHT22;10715;48.546;9.896;2022-10-16T08:22:59;15.00;99.90
21115;DHT22;10715;48.546;9.896;2022-10-16T08:25:25;15.10;99.90
21115;DHT22;10715;48.546;9.896;2022-10-16T08:27:51;15.20;99.90
21115;DHT22;10715;48.546;9.896;2022-10-16T08:30:19;15.30;99.90
21115;DHT22;10715;48.546;9.896;2022-10-16T08:32:45;15.40;99.90
21115;DHT22;10715;48.546;9.896;2022-10-16T08:35:12;15.50;99.90
21115;DHT22;10715;48.546;9.896;2022-10-16T08:37:38;15.60;99.90
21115;DHT22;10715;48.546;9.896;2022-10-16T08:40:06;15.70;99.90
21115;DHT22;10715;48.546;9.896;2022-10-16T08:43:09;15.80;99.90
21115;DHT22;10715;48.546;9.896;2022-10-16T08:45:30;15.80;99.90
21115;DHT22;10715;48.546;9.896;2022-10-16T08:50:51;16.00;99.90
21115;DHT22;10715;48.546;9.896;2022-10-16T08:53:31;16.10;99.90
21115;DHT22;10715;48.546;9.896;2022-10-16T08:55:59;16.20;99.90
21115;DHT22;10715;48.546;9.896;2022-10-16T08:58:29;16.20;99.90
21115;DHT22;10715;48.546;9.896;2022-10-16T09:01:00;16.20;99.90
21115;DHT22;10715;48.546;9.896;2022-10-16T09:12:23;16.30;99.90
21115;DHT22;10715;48.546;9.896;2022-10-16T09:14:57;16.40;99.90
21115;DHT22;10715;48.546;9.896;2022-10-16T09:17:40;16.40;99.90
21115;DHT22;10715;48.546;9.896;2022-10-16T09:23:17;16.40;99.90
21115;DHT22;10715;48.546;9.896;2022-10-16T09:25:45;16.40;99.90
21115;DHT22;10715;48.546;9.896;2022-10-16T09:28:13;16.40;99.90
21115;DHT22;10715;48.546;9.896;2022-10-16T09:30:39;16.50;99.90
21115;DHT22;10715;48.546;9.896;2022-10-16T09:33:05;16.50;99.90
21115;DHT22;10715;48.546;9.896;2022-10-16T09:35:39;16.70;99.90
21115;DHT22;10715;48.546;9.896;2022-10-16T09:38:06;16.80;99.90
21115;DHT22;10715;48.546;9.896;2022-10-16T09:40:35;16.90;99.90
21115;DHT22;10715;48.546;9.896;2022-10-16T09:43:46;17.00;99.90
21115;DHT22;10715;48.546;9.896;2022-10-16T09:46:01;17.10;99.90
21115;DHT22;10715;48.546;9.896;2022-10-16T09:51:06;17.70;99.90
21115;DHT22;10715;48.546;9.896;2022-10-16T09:53:43;18.40;99.90
21115;DHT22;10715;48.546;9.896;2022-10-16T09:56:11;19.20;99.90
21115;DHT22;10715;48.546;9.896;2022-10-16T09:58:42;20.00;99.90
21115;DHT22;10715;48.546;9.896;2022-10-16T10:01:14;20.70;99.90
21115;DHT22;10715;48.546;9.896;2022-10-16T10:03:43;21.20;99.90
21115;DHT22;10715;48.546;9.896;2022-10-16T10:06:25;21.30;99.90
21115;DHT22;10715;48.546;9.896;2022-10-16T10:08:55;21.30;99.90
21115;DHT22;10715;48.546;9.896;2022-10-16T10:16:44;20.50;99.90
21115;DHT22;10715;48.546;9.896;2022-10-16T10:30:24;19.90;99.90
21115;DHT22;10715;48.546;9.896;2022-10-16T10:35:22;19.90;99.90
21115;DHT22;10715;48.546;9.896;2022-10-16T10:45:44;19.50;99.90
21115;DHT22;10715;48.546;9.896;2022-10-16T10:51:07;19.30;99.90
21115;DHT22;10715;48.546;9.896;2022-10-16T10:57:09;19.10;99.90
21115;DHT22;10715;48.546;9.896;2022-10-16T11:02:13;19.30;99.90
21115;DHT22;10715;48.546;9.896;2022-10-16T11:04:58;19.40;99.90
21115;DHT22;10715;48.546;9.896;2022-10-16T11:07:34;19.50;99.90
21115;DHT22;10715;48.546;9.896;2022-10-16T11:10:11;19.60;99.90
21115;DHT22;10715;48.546;9.896;2022-10-16T11:12:45;19.60;99.90
21115;DHT22;10715;48.546;9.896;2022-10-16T11:15:30;19.70;99.90
21115;DHT22;10715;48.546;9.896;2022-10-16T11:20:37;19.60;99.90
21115;DHT22;10715;48.546;9.896;2022-10-16T11:25:51;20.00;99.90
21115;DHT22;10715;48.546;9.896;2022-10-16T11:28:25;20.60;99.90
21115;DHT22;10715;48.546;9.896;2022-10-16T11:36:47;20.80;99.90
21115;DHT22;10715;48.546;9.896;2022-10-16T11:39:30;20.50;99.90
21115;DHT22;10715;48.546;9.896;2022-10-16T11:44:54;20.20;99.90
21115;DHT22;10715;48.546;9.896;2022-10-16T11:47:37;19.90;99.90
21115;DHT22;10715;48.546;9.896;2022-10-16T11:50:17;19.70;99.90
21115;DHT22;10715;48.546;9.896;2022-10-16T11:55:47;19.30;99.90
21115;DHT22;10715;48.546;9.896;2022-10-16T12:00:53;19.10;99.90
21115;DHT22;10715;48.546;9.896;2022-10-16T12:04:34;19.10;99.90
21115;DHT22;10715;48.546;9.896;2022-10-16T12:06:48;19.10;99.90
21115;DHT22;10715;48.546;9.896;2022-10-16T12:09:27;19.10;99.90
21115;DHT22;10715;48.546;9.896;2022-10-16T12:11:54;19.10;99.90
21115;DHT22;10715;48.546;9.896;2022-10-16T12:14:32;19.10;99.90
21115;DHT22;10715;48.546;9.896;2022-10-16T12:17:25;19.10;99.90
21115;DHT22;10715;48.546;9.896;2022-10-16T12:20:00;19.10;99.90
21115;DHT22;10715;48.546;9.896;2022-10-16T12:22:29;19.20;99.90
21115;DHT22;10715;48.546;9.896;2022-10-16T12:24:56;19.30;99.90
21115;DHT22;10715;48.546;9.896;2022-10-16T12:27:30;19.60;99.90
21115;DHT22;10715;48.546;9.896;2022-10-16T12:30:01;19.80;99.90
21115;DHT22;10715;48.546;9.896;2022-10-16T12:32:37;20.00;99.90
21115;DHT22;10715;48.546;9.896;2022-10-16T12:35:06;20.10;99.90
21115;DHT22;10715;48.546;9.896;2022-10-16T12:37:42;20.10;99.90
21115;DHT22;10715;48.546;9.896;2022-10-16T12:40:23;20.00;99.90
21115;DHT22;10715;48.546;9.896;2022-10-16T12:42:50;20.10;99.90
21115;DHT22;10715;48.546;9.896;2022-10-16T12:45:31;20.10;99.90
21115;DHT22;10715;48.546;9.896;2022-10-16T12:48:00;20.20;99.90
21115;DHT22;10715;48.546;9.896;2022-10-16T12:52:56;20.20;99.90
21115;DHT22;10715;48.546;9.896;2022-10-16T12:55:22;20.20;99.90
21115;DHT22;10715;48.546;9.896;2022-10-16T13:06:33;20.20;99.90
21115;DHT22;10715;48.546;9.896;2022-10-16T13:09:17;20.20;99.90
21115;DHT22;10715;48.546;9.896;2022-10-16T13:12:11;20.20;99.90
21115;DHT22;10715;48.546;9.896;2022-10-16T13:15:00;20.10;99.90
21115;DHT22;10715;48.546;9.896;2022-10-16T13:20:09;20.20;99.90
21115;DHT22;10715;48.546;9.896;2022-10-16T13:23:02;20.20;99.90
21115;DHT22;10715;48.546;9.896;2022-10-16T13:25:50;20.30;99.90
21115;DHT22;10715;48.546;9.896;2022-10-16T13:28:26;20.30;99.90
21115;DHT22;10715;48.546;9.896;2022-10-16T13:30:54;20.30;99.90
21115;DHT22;10715;48.546;9.896;2022-10-16T13:33:30;20.30;99.90
21115;DHT22;10715;48.546;9.896;2022-10-16T13:35:58;20.30;99.90
21115;DHT22;10715;48.546;9.896;2022-10-16T13:38:26;20.40;99.90
21115;DHT22;10715;48.546;9.896;2022-10-16T13:43:43;20.50;99.90
21115;DHT22;10715;48.546;9.896;2022-10-16T13:46:21;20.60;99.90
21115;DHT22;10715;48.546;9.896;2022-10-16T13:48:59;20.60;99.90
21115;DHT22;10715;48.546;9.896;2022-10-16T13:51:25;20.50;99.90
21115;DHT22;10715;48.546;9.896;2022-10-16T13:53:51;20.50;99.90
21115;DHT22;10715;48.546;9.896;2022-10-16T13:56:20;20.50;99.90
21115;DHT22;10715;48.546;9.896;2022-10-16T13:58:58;20.40;99.90
21115;DHT22;10715;48.546;9.896;2022-10-16T14:01:27;20.30;99.90
21115;DHT22;10715;48.546;9.896;2022-10-16T14:04:05;20.20;99.90
21115;DHT22;10715;48.546;9.896;2022-10-16T14:06:32;20.10;99.90
21115;DHT22;10715;48.546;9.896;2022-10-16T14:09:02;20.00;99.90
21115;DHT22;10715;48.546;9.896;2022-10-16T14:11:30;20.00;99.90
21115;DHT22;10715;48.546;9.896;2022-10-16T14:13:56;20.00;99.90
21115;DHT22;10715;48.546;9.896;2022-10-16T14:16:25;20.00;99.90
21115;DHT22;10715;48.546;9.896;2022-10-16T14:18:57;20.00;99.90
21115;DHT22;10715;48.546;9.896;2022-10-16T14:21:24;20.00;99.90
21115;DHT22;10715;48.546;9.896;2022-10-16T14:23:51;20.10;99.90
21115;DHT22;10715;48.546;9.896;2022-10-16T14:26:20;20.10;99.90
21115;DHT22;10715;48.546;9.896;2022-10-16T14:28:47;20.10;99.90
21115;DHT22;10715;48.546;9.896;2022-10-16T14:33:50;20.20;99.90
21115;DHT22;10715;48.546;9.896;2022-10-16T14:36:16;20.20;99.90
21115;DHT22;10715;48.546;9.896;2022-10-16T14:39:05;20.10;99.90
21115;DHT22;10715;48.546;9.896;2022-10-16T14:41:32;20.10;99.90
21115;DHT22;10715;48.546;9.896;2022-10-16T14:44:03;20.00;99.90
21115;DHT22;10715;48.546;9.896;2022-10-16T14:46:36;19.90;99.90
21115;DHT22;10715;48.546;9.896;2022-10-16T14:51:35;19.70;99.90
21115;DHT22;10715;48.546;9.896;2022-10-16T14:54:01;19.60;99.90
21115;DHT22;10715;48.546;9.896;2022-10-16T14:59:39;19.30;99.90
21115;DHT22;10715;48.546;9.896;2022-10-16T15:02:35;19.10;99.90
21115;DHT22;10715;48.546;9.896;2022-10-16T15:05:23;18.90;99.90
21115;DHT22;10715;48.546;9.896;2022-10-16T15:07:50;18.80;99.90
21115;DHT22;10715;48.546;9.896;2022-10-16T15:10:17;18.70;99.90
21115;DHT22;10715;48.546;9.896;2022-10-16T15:12:43;18.60;99.90
21115;DHT22;10715;48.546;9.896;2022-10-16T15:15:34;18.60;99.90
21115;DHT22;10715;48.546;9.896;2022-10-16T15:18:01;18.50;99.90
21115;DHT22;10715;48.546;9.896;2022-10-16T15:20:36;18.50;99.90
21115;DHT22;10715;48.546;9.896;2022-10-16T15:23:10;18.60;99.90
21115;DHT22;10715;48.546;9.896;2022-10-16T15:25:55;18.60;99.90
21115;DHT22;10715;48.546;9.896;2022-10-16T15:28:22;18.60;99.90
21115;DHT22;10715;48.546;9.896;2022-10-16T15:30:53;18.60;99.90
21115;DHT22;10715;48.546;9.896;2022-10-16T15:33:22;18.60;99.90
21115;DHT22;10715;48.546;9.896;2022-10-16T15:35:52;18.60;99.90
21115;DHT22;10715;48.546;9.896;2022-10-16T15:38:19;18.50;99.90
21115;DHT22;10715;48.546;9.896;2022-10-16T15:40:46;18.40;99.90
21115;DHT22;10715;48.546;9.896;2022-10-16T15:43:12;18.30;99.90
21115;DHT22;10715;48.546;9.896;2022-10-16T15:45:44;18.20;99.90
21115;DHT22;10715;48.546;9.896;2022-10-16T15:48:17;18.10;99.90
21115;DHT22;10715;48.546;9.896;2022-10-16T15:50:43;18.10;99.90
21115;DHT22;10715;48.546;9.896;2022-10-16T15:53:08;18.00;99.90
21115;DHT22;10715;48.546;9.896;2022-10-16T15:55:37;17.90;99.90
21115;DHT22;10715;48.546;9.896;2022-10-16T15:58:04;17.80;99.90
21115;DHT22;10715;48.546;9.896;2022-10-16T16:00:30;17.70;99.90
21115;DHT22;10715;48.546;9.896;2022-10-16T16:02:59;17.70;99.90
21115;DHT22;10715;48.546;9.896;2022-10-16T16:05:25;17.60;99.90
21115;DHT22;10715;48.546;9.896;2022-10-16T16:07:52;17.50;99.90
21115;DHT22;10715;48.546;9.896;2022-10-16T16:10:18;17.40;99.90
21115;DHT22;10715;48.546;9.896;2022-10-16T16:12:49;17.30;99.90
21115;DHT22;10715;48.546;9.896;2022-10-16T16:15:20;17.20;99.90
21115;DHT22;10715;48.546;9.896;2022-10-16T16:17:49;17.10;99.90
21115;DHT22;10715;48.546;9.896;2022-10-16T16:20:15;17.00;99.90
21115;DHT22;10715;48.546;9.896;2022-10-16T16:22:41;16.80;99.90
21115;DHT22;10715;48.546;9.896;2022-10-16T16:25:10;16.80;99.90
21115;DHT22;10715;48.546;9.896;2022-10-16T16:27:36;16.60;99.90
21115;DHT22;10715;48.546;9.896;2022-10-16T16:30:05;16.50;99.90
21115;DHT22;10715;48.546;9.896;2022-10-16T16:32:33;16.40;99.90
21115;DHT22;10715;48.546;9.896;2022-10-16T16:35:00;16.30;99.90
21115;DHT22;10715;48.546;9.896;2022-10-16T16:37:25;16.30;99.90
21115;DHT22;10715;48.546;9.896;2022-10-16T16:39:51;16.20;99.90
21115;DHT22;10715;48.546;9.896;2022-10-16T16:42:17;16.10;99.90
21115;DHT22;10715;48.546;9.896;2022-10-16T16:44:43;16.00;99.90
21115;DHT22;10715;48.546;9.896;2022-10-16T16:47:09;15.90;99.90
21115;DHT22;10715;48.546;9.896;2022-10-16T16:49:35;15.80;99.90
21115;DHT22;10715;48.546;9.896;2022-10-16T16:52:00;15.70;99.90
21115;DHT22;10715;48.546;9.896;2022-10-16T16:54:26;15.60;99.90
21115;DHT22;10715;48.546;9.896;2022-10-16T16:56:52;15.50;99.90
21115;DHT22;10715;48.546;9.896;2022-10-16T16:59:20;15.40;99.90
21115;DHT22;10715;48.546;9.896;2022-10-16T17:01:47;15.30;99.90
21115;DHT22;10715;48.546;9.896;2022-10-16T17:04:13;15.20;99.90
21115;DHT22;10715;48.546;9.896;2022-10-16T17:06:40;15.10;99.90
21115;DHT22;10715;48.546;9.896;2022-10-16T17:09:07;15.00;99.90
21115;DHT22;10715;48.546;9.896;2022-10-16T17:11:33;14.90;99.90
21115;DHT22;10715;48.546;9.896;2022-10-16T17:14:00;14.80;99.90
21115;DHT22;10715;48.546;9.896;2022-10-16T17:16:29;14.70;99.90
21115;DHT22;10715;48.546;9.896;2022-10-16T17:18:59;14.60;99.90
21115;DHT22;10715;48.546;9.896;2022-10-16T17:21:25;14.50;99.90
21115;DHT22;10715;48.546;9.896;2022-10-16T17:23:52;14.40;99.90
21115;DHT22;10715;48.546;9.896;2022-10-16T17:26:18;14.30;99.90
21115;DHT22;10715;48.546;9.896;2022-10-16T17:28:43;14.20;99.90